createdAt,value
2024-01-16T00:00:17.797Z,0.47
2024-01-16T00:02:45.606Z,0.50
2024-01-16T00:05:14.748Z,0.46
2024-01-16T00:07:42.683Z,0.44
2024-01-16T00:10:11.976Z,0.41
2024-01-16T00:12:41.155Z,0.59
2024-01-16T00:15:09.949Z,0.44
2024-01-16T00:17:37.878Z,0.39
2024-01-16T00:20:07.751Z,0.34
2024-01-16T00:22:36.849Z,0.63
2024-01-16T00:25:05.191Z,0.40
2024-01-16T00:27:33.015Z,0.33
2024-01-16T00:30:00.843Z,0.46
2024-01-16T00:32:28.725Z,0.46
2024-01-16T00:34:56.616Z,0.35
2024-01-16T00:37:24.391Z,0.52
2024-01-16T00:39:53.552Z,0.60
2024-01-16T00:42:21.296Z,0.41
2024-01-16T00:44:49.199Z,0.46
2024-01-16T00:47:17.133Z,0.40
2024-01-16T00:49:45.030Z,0.49
2024-01-16T00:52:12.846Z,0.43
2024-01-16T00:54:41.168Z,0.57
2024-01-16T00:57:10.343Z,0.53
2024-01-16T00:59:38.676Z,0.68
2024-01-16T01:02:06.487Z,0.50
2024-01-16T01:04:34.969Z,0.59
2024-01-16T01:07:02.837Z,0.84
2024-01-16T01:09:30.623Z,0.68
2024-01-16T01:11:58.425Z,0.48
2024-01-16T01:14:30.386Z,0.71
2024-01-16T01:16:58.414Z,0.85
2024-01-16T01:19:26.296Z,0.89
2024-01-16T01:21:54.189Z,0.88
2024-01-16T01:24:21.979Z,0.87
2024-01-16T01:26:49.841Z,0.58
2024-01-16T01:29:18.408Z,0.89
2024-01-16T01:31:49.562Z,0.81
2024-01-16T01:34:17.785Z,0.93
2024-01-16T01:36:45.618Z,0.75
2024-01-16T01:39:13.466Z,0.76
2024-01-16T01:41:41.362Z,0.70
2024-01-16T01:44:16.497Z,0.79
2024-01-16T01:46:44.525Z,0.57
2024-01-16T01:49:13.839Z,0.60
2024-01-16T01:51:41.758Z,0.64
2024-01-16T01:54:10.277Z,0.90
2024-01-16T01:56:38.308Z,0.79
2024-01-16T01:59:07.376Z,0.78
2024-01-16T02:01:36.543Z,0.87
2024-01-16T02:04:04.724Z,0.77
2024-01-16T02:06:34.330Z,1.04
2024-01-16T02:09:02.110Z,0.93
2024-01-16T02:11:30.104Z,1.10
2024-01-16T02:13:57.909Z,0.77
2024-01-16T02:16:26.254Z,0.55
2024-01-16T02:18:54.531Z,0.76
2024-01-16T02:21:23.733Z,0.86
2024-01-16T02:23:53.024Z,0.73
2024-01-16T02:26:20.958Z,0.73
2024-01-16T02:28:48.722Z,0.53
2024-01-16T02:31:17.635Z,0.81
2024-01-16T02:33:45.690Z,0.49
2024-01-16T02:36:13.623Z,0.22
2024-01-16T02:38:43.869Z,0.37
2024-01-16T02:41:15.733Z,0.38
2024-01-16T02:43:43.490Z,0.25
2024-01-16T02:46:11.552Z,0.24
2024-01-16T02:48:39.818Z,0.28
2024-01-16T02:51:07.647Z,0.29
2024-01-16T02:53:35.580Z,0.41
2024-01-16T02:56:03.478Z,0.25
2024-01-16T02:58:32.874Z,0.17
2024-01-16T03:00:59.851Z,0.27
2024-01-16T03:03:28.755Z,0.36
2024-01-16T03:05:57.386Z,0.19
2024-01-16T03:08:25.428Z,0.08
2024-01-16T03:10:53.279Z,0.29
2024-01-16T03:13:21.045Z,0.22
2024-01-16T03:15:50.205Z,0.09
2024-01-16T03:18:18.205Z,0.07
2024-01-16T03:20:46.131Z,0.02
2024-01-16T03:23:14.870Z,0.26
2024-01-16T03:25:42.701Z,0.25
2024-01-16T03:28:11.633Z,0.29
2024-01-16T03:30:39.539Z,0.26
2024-01-16T03:33:08.813Z,0.18
2024-01-16T03:35:36.768Z,0.26
2024-01-16T03:38:05.109Z,0.27
2024-01-16T03:40:35.371Z,0.29
2024-01-16T03:43:03.612Z,0.20
2024-01-16T03:45:31.450Z,0.03
2024-01-16T03:47:59.290Z,0.30
2024-01-16T03:50:28.576Z,0.38
2024-01-16T03:52:56.425Z,0.46
2024-01-16T03:55:24.237Z,0.36
2024-01-16T03:57:52.659Z,0.10
2024-01-16T04:00:20.408Z,0.13
2024-01-16T04:02:48.397Z,0.29
2024-01-16T04:05:16.340Z,0.23
2024-01-16T04:07:45.496Z,0.29
2024-01-16T04:10:13.284Z,0.25
2024-01-16T04:12:41.114Z,0.12
2024-01-16T04:15:09.783Z,0.15
2024-01-16T04:17:37.553Z,0.06
2024-01-16T04:20:07.980Z,0.04
2024-01-16T04:22:35.797Z,0.31
2024-01-16T04:25:06.046Z,0.26
2024-01-16T04:27:34.055Z,0.22
2024-01-16T04:30:01.997Z,0.14
2024-01-16T04:32:30.000Z,0.18
2024-01-16T04:34:57.886Z,0.29
2024-01-16T04:37:26.129Z,0.30
2024-01-16T04:39:55.365Z,0.37
2024-01-16T04:42:24.857Z,0.16
2024-01-16T04:44:52.958Z,0.27
2024-01-16T04:47:21.054Z,0.33
2024-01-16T04:49:49.257Z,0.15
2024-01-16T04:52:17.286Z,0.45
2024-01-16T04:54:46.799Z,0.42
2024-01-16T04:57:14.858Z,0.42
2024-01-16T04:59:44.421Z,0.29
2024-01-16T05:02:12.897Z,0.37
2024-01-16T05:04:40.866Z,0.17
2024-01-16T05:07:08.938Z,0.17
2024-01-16T05:09:36.899Z,0.29
2024-01-16T05:12:05.674Z,0.18
2024-01-16T05:14:33.701Z,0.14
2024-01-16T05:17:03.607Z,0.19
2024-01-16T05:19:31.603Z,0.22
2024-01-16T05:21:59.727Z,0.41
2024-01-16T05:24:27.752Z,0.53
2024-01-16T05:26:55.817Z,0.14
2024-01-16T05:29:23.838Z,0.37
2024-01-16T05:31:52.893Z,0.34
2024-01-16T05:34:22.491Z,0.22
2024-01-16T05:36:50.479Z,0.20
2024-01-16T05:39:18.478Z,0.31
2024-01-16T05:41:46.518Z,0.44
2024-01-16T05:44:14.592Z,0.33
2024-01-16T05:46:42.606Z,0.36
2024-01-16T05:49:10.658Z,0.22
2024-01-16T05:51:40.060Z,0.25
2024-01-16T05:54:07.973Z,0.13
2024-01-16T05:56:36.247Z,0.11
2024-01-16T05:59:04.217Z,0.21
2024-01-16T06:01:32.235Z,0.26
2024-01-16T06:04:00.937Z,0.29
2024-01-16T06:06:28.924Z,0.39
2024-01-16T06:08:59.919Z,0.17
2024-01-16T06:11:32.449Z,0.44
2024-01-16T06:14:00.711Z,0.17
2024-01-16T06:16:28.955Z,0.25
2024-01-16T06:18:57.118Z,0.16
2024-01-16T06:21:25.262Z,0.26
2024-01-16T06:23:53.302Z,0.18
2024-01-16T06:26:22.822Z,0.12
2024-01-16T06:28:50.932Z,0.10
2024-01-16T06:31:19.273Z,0.01
2024-01-16T06:33:47.523Z,0.18
2024-01-16T06:36:15.669Z,0.16
2024-01-16T06:38:43.652Z,0.11
2024-01-16T06:41:11.516Z,-0.07
2024-01-16T06:43:41.576Z,0.26
2024-01-16T06:46:09.859Z,0.16
2024-01-16T06:48:38.998Z,0.14
2024-01-16T06:51:09.056Z,0.18
2024-01-16T06:53:37.058Z,0.21
2024-01-16T06:56:05.399Z,0.16
2024-01-16T06:58:33.315Z,0.57
2024-01-16T07:01:02.640Z,0.50
2024-01-16T07:03:30.599Z,0.63
2024-01-16T07:05:58.650Z,0.59
2024-01-16T07:08:26.638Z,0.51
2024-01-16T07:10:54.765Z,0.72
2024-01-16T07:13:22.804Z,0.53
2024-01-16T07:15:50.802Z,0.63
2024-01-16T07:18:20.229Z,0.57
2024-01-16T07:20:48.458Z,0.54
2024-01-16T07:23:16.725Z,0.52
2024-01-16T07:25:44.828Z,0.78
2024-01-16T07:28:12.850Z,0.70
2024-01-16T07:30:41.086Z,0.69
2024-01-16T07:33:09.234Z,0.69
2024-01-16T07:35:38.931Z,0.28
2024-01-16T07:38:06.904Z,0.64
2024-01-16T07:40:34.856Z,0.59
2024-01-16T07:43:02.909Z,0.62
2024-01-16T07:45:30.928Z,0.84
2024-01-16T07:47:59.317Z,0.73
2024-01-16T07:50:27.403Z,0.61
2024-01-16T07:52:56.780Z,0.87
2024-01-16T07:55:25.479Z,1.09
2024-01-16T07:57:54.139Z,1.11
2024-01-16T08:00:23.079Z,1.00
2024-01-16T08:02:50.927Z,1.05
2024-01-16T08:05:18.779Z,0.84
2024-01-16T08:07:47.192Z,0.88
2024-01-16T08:10:19.307Z,0.87
2024-01-16T08:12:47.459Z,1.04
2024-01-16T08:15:15.376Z,1.05
2024-01-16T08:17:43.428Z,1.08
2024-01-16T08:20:12.242Z,1.01
2024-01-16T08:22:40.086Z,1.28
2024-01-16T08:25:09.184Z,1.45
2024-01-16T08:27:39.222Z,1.32
2024-01-16T08:30:08.660Z,1.45
2024-01-16T08:32:36.638Z,1.28
2024-01-16T08:35:06.368Z,1.59
2024-01-16T08:37:35.796Z,1.64
2024-01-16T08:40:04.854Z,1.72
2024-01-16T08:42:32.833Z,1.62
2024-01-16T08:45:02.076Z,1.64
2024-01-16T08:47:30.064Z,1.51
2024-01-16T08:49:58.045Z,1.36
2024-01-16T08:52:25.881Z,1.85
2024-01-16T08:54:53.683Z,1.81
2024-01-16T08:57:24.521Z,1.93
2024-01-16T08:59:53.087Z,2.00
2024-01-16T09:02:22.678Z,1.72
2024-01-16T09:04:51.595Z,2.16
2024-01-16T09:07:20.011Z,1.82
2024-01-16T09:09:48.082Z,2.05
2024-01-16T09:12:17.119Z,2.05
2024-01-16T09:14:44.939Z,1.89
2024-01-16T09:17:12.784Z,1.56
2024-01-16T09:19:42.302Z,1.75
2024-01-16T09:22:10.075Z,2.10
2024-01-16T09:24:37.867Z,1.86
2024-01-16T09:27:07.623Z,2.10
2024-01-16T09:29:35.313Z,1.95
2024-01-16T09:32:03.771Z,1.87
2024-01-16T09:34:31.680Z,1.88
2024-01-16T09:37:03.462Z,2.30
2024-01-16T09:39:32.616Z,2.08
2024-01-16T09:42:02.929Z,1.98
2024-01-16T09:44:31.081Z,1.72
2024-01-16T09:46:59.890Z,2.43
2024-01-16T09:49:27.991Z,1.97
2024-01-16T09:51:55.787Z,2.18
2024-01-16T09:54:24.867Z,1.77
2024-01-16T09:56:53.811Z,2.31
2024-01-16T09:59:22.882Z,2.16
2024-01-16T10:01:51.222Z,2.20
2024-01-16T10:04:19.153Z,2.08
2024-01-16T10:06:48.511Z,1.99
2024-01-16T10:09:18.027Z,2.48
2024-01-16T10:11:47.464Z,2.17
2024-01-16T10:14:15.814Z,1.88
2024-01-16T10:17:00.403Z,2.26
2024-01-16T10:19:39.484Z,2.23
2024-01-16T10:22:14.385Z,2.32
2024-01-16T10:24:42.719Z,1.94
2024-01-16T10:27:11.876Z,1.97
2024-01-16T10:29:56.518Z,2.02
2024-01-16T10:32:31.800Z,1.85
2024-01-16T10:35:07.518Z,2.27
2024-01-16T10:37:46.291Z,1.82
2024-01-16T10:40:17.349Z,2.04
2024-01-16T10:42:47.541Z,2.36
2024-01-16T10:45:21.212Z,2.41
2024-01-16T10:47:49.458Z,2.81
2024-01-16T10:50:17.559Z,2.68
2024-01-16T10:52:49.652Z,2.91
2024-01-16T10:55:22.152Z,2.88
2024-01-16T10:57:52.085Z,3.12
2024-01-16T11:00:21.532Z,3.11
2024-01-16T11:02:57.494Z,3.04
2024-01-16T11:05:27.564Z,2.95
2024-01-16T11:07:56.649Z,2.91
2024-01-16T11:10:25.829Z,2.72
2024-01-16T11:12:55.143Z,2.82
2024-01-16T11:15:23.683Z,2.91
2024-01-16T11:17:52.016Z,2.74
2024-01-16T11:20:37.857Z,2.88
2024-01-16T11:23:07.925Z,2.99
2024-01-16T11:25:35.873Z,2.84
2024-01-16T11:28:12.826Z,3.14
2024-01-16T11:30:41.577Z,2.87
2024-01-16T11:33:44.763Z,2.84
2024-01-16T11:36:48.772Z,2.96
2024-01-16T11:39:20.179Z,2.84
2024-01-16T11:41:55.685Z,2.95
2024-01-16T11:44:45.168Z,2.47
2024-01-16T11:47:18.203Z,2.60
2024-01-16T11:49:47.798Z,2.90
2024-01-16T11:52:15.946Z,3.10
2024-01-16T11:54:44.193Z,2.76
2024-01-16T11:57:29.182Z,2.71
2024-01-16T12:00:02.524Z,3.07
2024-01-16T12:02:52.177Z,3.02
2024-01-16T12:05:20.077Z,2.94
2024-01-16T12:07:50.507Z,3.06
2024-01-16T12:10:19.611Z,2.38
2024-01-16T12:12:48.114Z,2.86
2024-01-16T12:15:18.494Z,3.06
2024-01-16T12:17:56.987Z,2.99
2024-01-16T12:20:25.688Z,2.92
2024-01-16T12:22:57.903Z,3.28
2024-01-16T12:25:59.269Z,3.38
2024-01-16T12:28:27.933Z,3.39
2024-01-16T12:31:02.345Z,3.31
2024-01-16T12:33:31.553Z,3.25
2024-01-16T12:36:04.109Z,3.14
2024-01-16T12:38:32.239Z,2.84
2024-01-16T12:41:03.431Z,2.88
2024-01-16T12:43:31.646Z,3.26
2024-01-16T12:46:01.741Z,2.89
2024-01-16T12:48:29.947Z,2.94
2024-01-16T12:51:01.337Z,3.13
2024-01-16T12:53:29.579Z,3.17
2024-01-16T12:56:01.402Z,3.48
2024-01-16T12:58:35.647Z,3.64
2024-01-16T13:01:35.146Z,3.31
2024-01-16T13:04:08.049Z,3.42
2024-01-16T13:06:36.844Z,3.56
2024-01-16T13:09:11.532Z,3.41
2024-01-16T13:11:51.695Z,3.36
2024-01-16T13:14:21.936Z,3.37
2024-01-16T13:16:51.693Z,3.55
2024-01-16T13:19:20.471Z,3.67
2024-01-16T13:21:48.612Z,3.59
2024-01-16T13:24:18.397Z,3.61
2024-01-16T13:26:46.501Z,3.67
2024-01-16T13:29:14.767Z,3.57
2024-01-16T13:31:42.645Z,3.51
2024-01-16T13:34:11.932Z,3.06
2024-01-16T13:36:53.982Z,3.30
2024-01-16T13:39:27.751Z,3.45
2024-01-16T13:41:55.901Z,3.32
2024-01-16T13:44:23.804Z,3.46
2024-01-16T13:47:00.896Z,3.34
2024-01-16T13:49:35.578Z,3.44
2024-01-16T13:52:04.287Z,3.58
2024-01-16T13:54:32.314Z,3.75
2024-01-16T13:57:06.705Z,3.67
2024-01-16T13:59:36.671Z,3.86
2024-01-16T14:02:05.439Z,3.47
2024-01-16T14:04:34.042Z,3.75
2024-01-16T14:07:12.169Z,3.61
2024-01-16T14:09:44.355Z,3.29
2024-01-16T14:12:13.512Z,3.26
2024-01-16T14:14:42.704Z,3.05
2024-01-16T14:17:10.910Z,2.77
2024-01-16T14:19:40.056Z,2.89
2024-01-16T14:22:09.435Z,2.84
2024-01-16T14:24:38.866Z,2.91
2024-01-16T14:27:08.172Z,2.64
2024-01-16T14:29:37.751Z,2.90
2024-01-16T14:32:05.622Z,2.93
2024-01-16T14:34:33.493Z,2.72
2024-01-16T14:37:01.673Z,3.02
2024-01-16T14:39:32.187Z,2.87
2024-01-16T14:42:00.533Z,2.80
2024-01-16T14:44:28.484Z,2.73
2024-01-16T14:46:56.274Z,2.63
2024-01-16T14:49:24.196Z,2.63
2024-01-16T14:51:52.639Z,2.59
2024-01-16T14:54:20.544Z,2.84
2024-01-16T14:56:50.110Z,2.84
2024-01-16T14:59:18.135Z,2.82
2024-01-16T15:01:46.405Z,2.67
2024-01-16T15:04:14.428Z,2.63
2024-01-16T15:06:42.700Z,2.71
2024-01-16T15:09:13.266Z,2.79
2024-01-16T15:11:41.172Z,2.62
2024-01-16T15:14:11.332Z,2.52
2024-01-16T15:16:39.137Z,2.35
2024-01-16T15:19:06.956Z,2.23
2024-01-16T15:21:34.731Z,2.25
2024-01-16T15:24:02.690Z,2.28
2024-01-16T15:26:32.222Z,2.21
2024-01-16T15:28:59.977Z,2.10
2024-01-16T15:31:29.108Z,2.02
2024-01-16T15:33:57.190Z,2.04
2024-01-16T15:36:25.011Z,2.03
2024-01-16T15:38:52.869Z,1.87
2024-01-16T15:41:20.790Z,1.83
2024-01-16T15:43:48.695Z,1.75
2024-01-16T15:46:17.595Z,1.74
2024-01-16T15:48:46.685Z,1.70
2024-01-16T15:51:14.609Z,1.59
2024-01-16T15:53:42.450Z,1.66
2024-01-16T15:56:10.656Z,1.81
2024-01-16T15:58:38.469Z,1.81
2024-01-16T16:01:06.276Z,1.88
2024-01-16T16:03:34.256Z,2.18
2024-01-16T16:06:05.992Z,2.00
2024-01-16T16:08:33.928Z,1.92
2024-01-16T16:11:01.862Z,1.89
2024-01-16T16:13:32.457Z,2.05
2024-01-16T16:16:00.984Z,2.11
2024-01-16T16:18:28.796Z,2.11
2024-01-16T16:20:56.760Z,2.06
2024-01-16T16:23:25.925Z,1.82
2024-01-16T16:25:53.911Z,1.86
2024-01-16T16:28:21.741Z,1.68
2024-01-16T16:30:49.610Z,1.66
2024-01-16T16:33:17.562Z,1.71
2024-01-16T16:35:46.314Z,1.43
2024-01-16T16:38:14.136Z,1.36
2024-01-16T16:40:43.261Z,1.30
2024-01-16T16:43:11.096Z,1.26
2024-01-16T16:45:39.260Z,1.21
2024-01-16T16:48:07.292Z,1.03
2024-01-16T16:50:35.148Z,1.12
2024-01-16T16:53:04.058Z,1.08
2024-01-16T16:55:31.897Z,0.96
2024-01-16T16:58:01.129Z,1.06
2024-01-16T17:00:28.993Z,1.02
2024-01-16T17:02:57.027Z,1.01
2024-01-16T17:05:25.089Z,0.75
2024-01-16T17:07:52.989Z,0.92
2024-01-16T17:10:20.817Z,0.74
2024-01-16T17:12:49.208Z,0.73
2024-01-16T17:15:18.499Z,0.84
2024-01-16T17:17:46.476Z,0.76
2024-01-16T17:20:14.600Z,0.74
2024-01-16T17:22:42.682Z,0.67
2024-01-16T17:25:11.800Z,0.60
2024-01-16T17:27:40.198Z,0.59
2024-01-16T17:30:09.592Z,0.53
2024-01-16T17:32:39.027Z,0.49
2024-01-16T17:35:08.675Z,0.33
2024-01-16T17:37:36.406Z,0.37
2024-01-16T17:40:13.174Z,0.49
2024-01-16T17:42:41.189Z,0.35
2024-01-16T17:45:10.588Z,0.32
2024-01-16T17:47:40.095Z,0.40
2024-01-16T17:50:10.977Z,0.31
2024-01-16T17:52:38.867Z,0.37
2024-01-16T17:55:07.696Z,0.37
2024-01-16T17:57:35.497Z,0.26
2024-01-16T18:00:06.099Z,0.10
2024-01-16T18:02:35.616Z,0.17
2024-01-16T18:05:11.143Z,0.23
2024-01-16T18:07:39.569Z,0.36
2024-01-16T18:10:09.998Z,0.23
2024-01-16T18:12:39.444Z,0.19
2024-01-16T18:15:13.101Z,0.20
2024-01-16T18:17:41.525Z,0.11
2024-01-16T18:20:11.963Z,-0.05
2024-01-16T18:22:39.958Z,0.10
2024-01-16T18:25:09.822Z,0.08
2024-01-16T18:27:37.707Z,0.14
2024-01-16T18:30:06.896Z,0.15
2024-01-16T18:32:35.409Z,-0.03
2024-01-16T18:35:06.353Z,0.05
2024-01-16T18:37:37.272Z,0.05
2024-01-16T18:40:09.746Z,0.02
2024-01-16T18:42:37.522Z,0.03
2024-01-16T18:45:06.103Z,-0.05
2024-01-16T18:47:34.172Z,0.05
2024-01-16T18:50:02.023Z,-0.04
2024-01-16T18:52:29.786Z,-0.09
2024-01-16T18:54:58.908Z,-0.12
2024-01-16T18:57:26.901Z,-0.07
2024-01-16T18:59:55.847Z,0.12
2024-01-16T19:02:26.965Z,0.06
2024-01-16T19:04:57.264Z,0.02
2024-01-16T19:07:25.073Z,-0.02
2024-01-16T19:09:52.893Z,0.02
2024-01-16T19:12:22.009Z,-0.11
2024-01-16T19:14:49.809Z,-0.19
2024-01-16T19:17:17.661Z,-0.16
2024-01-16T19:19:45.597Z,-0.24
2024-01-16T19:22:13.366Z,-0.26
2024-01-16T19:24:41.097Z,-0.22
2024-01-16T19:27:08.998Z,-0.25
2024-01-16T19:29:38.239Z,-0.31
2024-01-16T19:32:06.799Z,-0.33
2024-01-16T19:34:34.855Z,-0.33
2024-01-16T19:37:02.728Z,-0.44
2024-01-16T19:39:33.731Z,-0.36
2024-01-16T19:42:01.810Z,-0.33
2024-01-16T19:44:29.630Z,-0.43
2024-01-16T19:46:58.731Z,-0.35
2024-01-16T19:49:26.995Z,-0.34
2024-01-16T19:51:54.753Z,-0.38
2024-01-16T19:54:22.527Z,-0.36
2024-01-16T19:56:50.442Z,-0.19
2024-01-16T19:59:18.290Z,-0.20
2024-01-16T20:01:46.093Z,-0.27
2024-01-16T20:04:17.467Z,-0.15
2024-01-16T20:06:46.504Z,-0.18
2024-01-16T20:09:17.320Z,-0.19
2024-01-16T20:11:46.176Z,-0.04
2024-01-16T20:14:14.062Z,-0.05
2024-01-16T20:16:42.122Z,-0.05
2024-01-16T20:19:10.058Z,0.08
2024-01-16T20:21:39.299Z,0.15
2024-01-16T20:24:08.134Z,0.15
2024-01-16T20:26:37.554Z,0.10
2024-01-16T20:29:06.127Z,0.09
2024-01-16T20:31:34.747Z,0.24
2024-01-16T20:34:02.751Z,0.22
2024-01-16T20:36:30.763Z,0.18
2024-01-16T20:38:59.910Z,0.22
2024-01-16T20:41:27.704Z,0.26
2024-01-16T20:43:55.522Z,0.21
2024-01-16T20:46:24.261Z,0.06
2024-01-16T20:48:52.228Z,-0.03
2024-01-16T20:51:20.077Z,0.02
2024-01-16T20:53:47.935Z,0.05
2024-01-16T20:56:17.148Z,0.12
2024-01-16T20:58:44.973Z,0.05
2024-01-16T21:01:13.113Z,-0.09
2024-01-16T21:03:41.063Z,0.05
2024-01-16T21:06:10.513Z,-0.07
2024-01-16T21:08:39.403Z,-0.07
2024-01-16T21:11:07.311Z,-0.06
2024-01-16T21:13:36.490Z,-0.18
2024-01-16T21:16:07.559Z,-0.20
2024-01-16T21:18:35.620Z,-0.26
2024-01-16T21:21:03.615Z,-0.32
2024-01-16T21:23:32.098Z,-0.31
2024-01-16T21:25:59.950Z,-0.30
2024-01-16T21:28:27.772Z,-0.35
2024-01-16T21:31:02.355Z,-0.42
2024-01-16T21:33:30.817Z,-0.31
2024-01-16T21:35:58.902Z,-0.38
2024-01-16T21:38:27.171Z,-0.34
2024-01-16T21:40:55.029Z,-0.35
2024-01-16T21:43:24.235Z,-0.42
2024-01-16T21:45:52.133Z,-0.68
2024-01-16T21:48:21.440Z,-0.48
2024-01-16T21:50:49.403Z,-0.37
2024-01-16T21:53:17.278Z,-0.31
2024-01-16T21:55:45.465Z,-0.42
2024-01-16T21:58:12.706Z,-0.30
2024-01-16T22:00:41.506Z,-0.32
2024-01-16T22:03:09.511Z,-0.36
2024-01-16T22:05:41.939Z,-0.39
2024-01-16T22:08:10.741Z,-0.28
2024-01-16T22:10:42.878Z,-0.26
2024-01-16T22:13:12.582Z,-0.14
2024-01-16T22:15:40.488Z,-0.19
2024-01-16T22:18:08.501Z,-0.09
2024-01-16T22:20:37.724Z,-0.07
2024-01-16T22:23:05.702Z,-0.11
2024-01-16T22:25:33.512Z,0.01
2024-01-16T22:28:01.344Z,-0.05
2024-01-16T22:30:29.241Z,-0.02
2024-01-16T22:32:57.312Z,-0.15
2024-01-16T22:35:25.278Z,-0.07
2024-01-16T22:37:54.636Z,-0.12
2024-01-16T22:40:22.470Z,0.16
2024-01-16T22:42:50.263Z,0.05
2024-01-16T22:45:18.273Z,-0.02
2024-01-16T22:47:46.189Z,-0.18
2024-01-16T22:50:14.091Z,-0.05
2024-01-16T22:52:42.311Z,-0.15
2024-01-16T22:55:11.657Z,0.01
2024-01-16T22:57:39.436Z,-0.32
2024-01-16T23:00:18.357Z,-0.18
2024-01-16T23:02:48.349Z,-0.05
2024-01-16T23:05:17.736Z,-0.10
2024-01-16T23:07:46.006Z,-0.20
2024-01-16T23:10:16.034Z,-0.05
2024-01-16T23:12:44.931Z,-0.02
2024-01-16T23:15:13.227Z,-0.27
2024-01-16T23:17:41.055Z,-0.01
2024-01-16T23:20:13.954Z,-0.11
2024-01-16T23:22:42.297Z,-0.25
2024-01-16T23:25:11.570Z,-0.34
2024-01-16T23:27:41.561Z,-0.32
2024-01-16T23:30:11.501Z,-0.38
2024-01-16T23:32:39.598Z,-0.48
2024-01-16T23:35:08.085Z,-0.37
2024-01-16T23:37:37.287Z,-0.48
2024-01-16T23:40:06.120Z,-0.51
2024-01-16T23:42:34.028Z,-0.56
2024-01-16T23:45:04.928Z,-0.49
2024-01-16T23:47:34.874Z,-0.42
2024-01-16T23:50:02.850Z,-0.62
2024-01-16T23:52:30.703Z,-0.42
2024-01-16T23:54:58.526Z,-0.40
2024-01-16T23:57:26.314Z,-0.50
2024-01-16T23:59:54.267Z,-0.53
